Audubon, Iowa
Current Conditions -  °F | °C
As of 9:35 AM on Friday 24 Oct 2014 (Local Time) from KADU Reporting Station
Haze Haze  
Wind Chill: 61°   Ceiling: 400
Heat Index: 61°   Visibility: 1.7mi
Dew Point: 55°   Wind: 10mph
Humidity: 82%   Direction: 200°SSW
Pressure: 29.94"   Gusts: 21mph
Location:  41.72°N, 94.93°W
Report Text: KADU 241435Z AUTO 20009G18KT 1 3/4SM HZ OVC004 16/13 A2994 RMK AO2
Loading
Personal Weather Stations






























Interactive Weather Map
Tropical Storm Tracking
New forecast layout! Learn more

10-Day Weather Forecast

Advertisements
Track Severe Weather on mobile